sensor_id;sensor_type;location;lat;lon;timestamp;P1;durP1;ratioP1;P2;durP2;ratioP2
19280;SDS011;9774;52.034;5.342;2022-12-10T00:01:34;24.35;;;13.98;;
19280;SDS011;9774;52.034;5.342;2022-12-10T00:04:02;23.65;;;12.85;;
19280;SDS011;9774;52.034;5.342;2022-12-10T00:06:31;29.20;;;14.98;;
19280;SDS011;9774;52.034;5.342;2022-12-10T00:09:00;26.33;;;14.30;;
19280;SDS011;9774;52.034;5.342;2022-12-10T00:11:29;24.08;;;14.90;;
19280;SDS011;9774;52.034;5.342;2022-12-10T00:13:58;27.20;;;14.98;;
19280;SDS011;9774;52.034;5.342;2022-12-10T00:16:26;28.13;;;15.15;;
19280;SDS011;9774;52.034;5.342;2022-12-10T00:18:55;20.63;;;13.00;;
19280;SDS011;9774;52.034;5.342;2022-12-10T00:21:23;22.80;;;13.60;;
19280;SDS011;9774;52.034;5.342;2022-12-10T00:23:51;25.08;;;15.05;;
19280;SDS011;9774;52.034;5.342;2022-12-10T00:26:19;23.73;;;14.65;;
19280;SDS011;9774;52.034;5.342;2022-12-10T00:28:48;22.77;;;13.27;;
19280;SDS011;9774;52.034;5.342;2022-12-10T00:31:17;25.65;;;14.55;;
19280;SDS011;9774;52.034;5.342;2022-12-10T00:33:46;26.00;;;13.82;;
19280;SDS011;9774;52.034;5.342;2022-12-10T00:36:15;26.05;;;14.88;;
19280;SDS011;9774;52.034;5.342;2022-12-10T00:38:44;25.08;;;13.85;;
19280;SDS011;9774;52.034;5.342;2022-12-10T00:41:12;30.75;;;15.95;;
19280;SDS011;9774;52.034;5.342;2022-12-10T00:43:40;25.08;;;13.65;;
19280;SDS011;9774;52.034;5.342;2022-12-10T00:46:08;24.05;;;14.63;;
19280;SDS011;9774;52.034;5.342;2022-12-10T00:48:38;26.20;;;14.60;;
19280;SDS011;9774;52.034;5.342;2022-12-10T00:51:06;27.50;;;14.00;;
19280;SDS011;9774;52.034;5.342;2022-12-10T00:53:35;28.95;;;16.30;;
19280;SDS011;9774;52.034;5.342;2022-12-10T00:56:04;25.35;;;14.43;;
19280;SDS011;9774;52.034;5.342;2022-12-10T00:58:34;23.58;;;13.10;;
19280;SDS011;9774;52.034;5.342;2022-12-10T01:01:06;27.38;;;15.35;;
19280;SDS011;9774;52.034;5.342;2022-12-10T01:03:34;27.23;;;15.07;;
19280;SDS011;9774;52.034;5.342;2022-12-10T01:06:13;27.65;;;14.52;;
19280;SDS011;9774;52.034;5.342;2022-12-10T01:08:42;24.98;;;13.98;;
19280;SDS011;9774;52.034;5.342;2022-12-10T01:11:11;25.80;;;13.95;;
19280;SDS011;9774;52.034;5.342;2022-12-10T01:13:39;25.73;;;14.23;;
19280;SDS011;9774;52.034;5.342;2022-12-10T01:16:08;24.17;;;13.40;;
19280;SDS011;9774;52.034;5.342;2022-12-10T01:18:36;23.48;;;13.27;;
19280;SDS011;9774;52.034;5.342;2022-12-10T01:21:04;23.92;;;14.63;;
19280;SDS011;9774;52.034;5.342;2022-12-10T01:23:35;25.42;;;14.30;;
19280;SDS011;9774;52.034;5.342;2022-12-10T01:26:05;28.33;;;14.18;;
19280;SDS011;9774;52.034;5.342;2022-12-10T01:28:35;22.63;;;13.60;;
19280;SDS011;9774;52.034;5.342;2022-12-10T01:31:05;24.55;;;13.23;;
19280;SDS011;9774;52.034;5.342;2022-12-10T01:33:34;24.55;;;13.70;;
19280;SDS011;9774;52.034;5.342;2022-12-10T01:36:02;30.83;;;15.05;;
19280;SDS011;9774;52.034;5.342;2022-12-10T01:38:30;23.52;;;12.70;;
19280;SDS011;9774;52.034;5.342;2022-12-10T01:40:59;25.65;;;13.27;;
19280;SDS011;9774;52.034;5.342;2022-12-10T01:43:27;27.88;;;14.55;;
19280;SDS011;9774;52.034;5.342;2022-12-10T01:46:13;26.10;;;14.57;;
19280;SDS011;9774;52.034;5.342;2022-12-10T01:48:40;24.65;;;14.00;;
19280;SDS011;9774;52.034;5.342;2022-12-10T01:51:08;23.73;;;13.30;;
19280;SDS011;9774;52.034;5.342;2022-12-10T01:53:36;28.98;;;15.27;;
19280;SDS011;9774;52.034;5.342;2022-12-10T01:56:05;24.95;;;13.75;;
19280;SDS011;9774;52.034;5.342;2022-12-10T01:58:32;26.05;;;14.00;;
19280;SDS011;9774;52.034;5.342;2022-12-10T02:01:03;26.80;;;13.48;;
19280;SDS011;9774;52.034;5.342;2022-12-10T02:03:36;28.48;;;15.38;;
19280;SDS011;9774;52.034;5.342;2022-12-10T02:06:12;29.35;;;15.63;;
19280;SDS011;9774;52.034;5.342;2022-12-10T02:08:55;29.70;;;15.68;;
19280;SDS011;9774;52.034;5.342;2022-12-10T02:11:33;28.73;;;14.20;;
19280;SDS011;9774;52.034;5.342;2022-12-10T02:14:08;26.17;;;12.75;;
19280;SDS011;9774;52.034;5.342;2022-12-10T02:16:41;29.73;;;14.73;;
19280;SDS011;9774;52.034;5.342;2022-12-10T02:19:15;28.42;;;14.95;;
19280;SDS011;9774;52.034;5.342;2022-12-10T02:21:49;28.92;;;15.00;;
19280;SDS011;9774;52.034;5.342;2022-12-10T02:24:18;28.63;;;15.13;;
19280;SDS011;9774;52.034;5.342;2022-12-10T02:26:53;28.55;;;13.70;;
19280;SDS011;9774;52.034;5.342;2022-12-10T02:29:30;29.80;;;14.52;;
19280;SDS011;9774;52.034;5.342;2022-12-10T02:31:59;32.10;;;15.07;;
19280;SDS011;9774;52.034;5.342;2022-12-10T02:34:31;30.38;;;14.73;;
19280;SDS011;9774;52.034;5.342;2022-12-10T02:37:04;29.15;;;14.00;;
19280;SDS011;9774;52.034;5.342;2022-12-10T02:39:35;27.20;;;13.88;;
19280;SDS011;9774;52.034;5.342;2022-12-10T02:42:04;25.55;;;13.40;;
19280;SDS011;9774;52.034;5.342;2022-12-10T02:44:36;26.88;;;13.65;;
19280;SDS011;9774;52.034;5.342;2022-12-10T02:47:06;27.52;;;13.77;;
19280;SDS011;9774;52.034;5.342;2022-12-10T02:49:35;27.63;;;13.15;;
19280;SDS011;9774;52.034;5.342;2022-12-10T02:52:08;25.38;;;13.25;;
19280;SDS011;9774;52.034;5.342;2022-12-10T02:54:39;28.52;;;14.52;;
19280;SDS011;9774;52.034;5.342;2022-12-10T02:57:14;29.95;;;14.73;;
19280;SDS011;9774;52.034;5.342;2022-12-10T03:02:47;26.60;;;13.90;;
19280;SDS011;9774;52.034;5.342;2022-12-10T03:05:23;30.77;;;15.13;;
19280;SDS011;9774;52.034;5.342;2022-12-10T03:08:00;27.15;;;13.38;;
19280;SDS011;9774;52.034;5.342;2022-12-10T03:10:32;32.95;;;14.27;;
19280;SDS011;9774;52.034;5.342;2022-12-10T03:13:05;26.42;;;12.95;;
19280;SDS011;9774;52.034;5.342;2022-12-10T03:15:39;26.50;;;12.93;;
19280;SDS011;9774;52.034;5.342;2022-12-10T03:18:08;26.80;;;12.40;;
19280;SDS011;9774;52.034;5.342;2022-12-10T03:20:38;28.55;;;13.60;;
19280;SDS011;9774;52.034;5.342;2022-12-10T03:23:09;27.17;;;12.93;;
19280;SDS011;9774;52.034;5.342;2022-12-10T03:25:40;34.85;;;14.02;;
19280;SDS011;9774;52.034;5.342;2022-12-10T03:28:08;27.15;;;14.07;;
19280;SDS011;9774;52.034;5.342;2022-12-10T03:30:36;26.80;;;13.35;;
19280;SDS011;9774;52.034;5.342;2022-12-10T03:33:06;24.30;;;13.73;;
19280;SDS011;9774;52.034;5.342;2022-12-10T03:35:33;27.58;;;13.45;;
19280;SDS011;9774;52.034;5.342;2022-12-10T03:38:01;26.90;;;12.20;;
19280;SDS011;9774;52.034;5.342;2022-12-10T03:40:29;25.20;;;12.10;;
19280;SDS011;9774;52.034;5.342;2022-12-10T03:42:56;22.73;;;11.98;;
19280;SDS011;9774;52.034;5.342;2022-12-10T03:45:24;28.35;;;11.82;;
19280;SDS011;9774;52.034;5.342;2022-12-10T03:47:52;21.73;;;11.68;;
19280;SDS011;9774;52.034;5.342;2022-12-10T03:50:20;24.98;;;11.60;;
19280;SDS011;9774;52.034;5.342;2022-12-10T03:52:47;24.20;;;11.85;;
19280;SDS011;9774;52.034;5.342;2022-12-10T03:55:14;25.77;;;12.18;;
19280;SDS011;9774;52.034;5.342;2022-12-10T03:57:41;25.17;;;11.70;;
19280;SDS011;9774;52.034;5.342;2022-12-10T04:00:09;23.42;;;11.70;;
19280;SDS011;9774;52.034;5.342;2022-12-10T04:02:37;27.80;;;12.52;;
19280;SDS011;9774;52.034;5.342;2022-12-10T04:05:06;24.83;;;12.65;;
19280;SDS011;9774;52.034;5.342;2022-12-10T04:07:34;26.60;;;13.25;;
19280;SDS011;9774;52.034;5.342;2022-12-10T04:10:02;30.40;;;13.25;;
19280;SDS011;9774;52.034;5.342;2022-12-10T04:12:30;23.08;;;11.52;;
19280;SDS011;9774;52.034;5.342;2022-12-10T04:14:57;24.02;;;11.93;;
19280;SDS011;9774;52.034;5.342;2022-12-10T04:17:42;24.15;;;12.80;;
19280;SDS011;9774;52.034;5.342;2022-12-10T04:20:10;28.25;;;12.93;;
19280;SDS011;9774;52.034;5.342;2022-12-10T04:22:52;29.33;;;12.70;;
19280;SDS011;9774;52.034;5.342;2022-12-10T04:25:36;25.27;;;12.95;;
19280;SDS011;9774;52.034;5.342;2022-12-10T04:28:21;24.63;;;11.82;;
19280;SDS011;9774;52.034;5.342;2022-12-10T04:30:48;25.00;;;12.60;;
19280;SDS011;9774;52.034;5.342;2022-12-10T04:33:16;27.80;;;13.25;;
19280;SDS011;9774;52.034;5.342;2022-12-10T04:35:44;34.05;;;14.45;;
19280;SDS011;9774;52.034;5.342;2022-12-10T04:38:12;28.80;;;14.07;;
19280;SDS011;9774;52.034;5.342;2022-12-10T04:40:39;26.58;;;13.23;;
19280;SDS011;9774;52.034;5.342;2022-12-10T04:43:06;28.08;;;13.90;;
19280;SDS011;9774;52.034;5.342;2022-12-10T04:45:34;29.25;;;14.73;;
19280;SDS011;9774;52.034;5.342;2022-12-10T04:48:01;34.35;;;14.90;;
19280;SDS011;9774;52.034;5.342;2022-12-10T04:50:29;24.40;;;13.18;;
19280;SDS011;9774;52.034;5.342;2022-12-10T04:52:57;26.13;;;13.10;;
19280;SDS011;9774;52.034;5.342;2022-12-10T04:55:24;23.58;;;12.05;;
19280;SDS011;9774;52.034;5.342;2022-12-10T04:57:52;25.20;;;13.52;;
19280;SDS011;9774;52.034;5.342;2022-12-10T05:00:19;26.13;;;12.80;;
19280;SDS011;9774;52.034;5.342;2022-12-10T05:02:47;34.22;;;13.85;;
19280;SDS011;9774;52.034;5.342;2022-12-10T05:05:15;24.60;;;12.93;;
19280;SDS011;9774;52.034;5.342;2022-12-10T05:07:42;26.20;;;12.57;;
19280;SDS011;9774;52.034;5.342;2022-12-10T05:10:11;24.38;;;13.10;;
19280;SDS011;9774;52.034;5.342;2022-12-10T05:12:38;24.80;;;12.07;;
19280;SDS011;9774;52.034;5.342;2022-12-10T05:15:06;22.95;;;12.15;;
19280;SDS011;9774;52.034;5.342;2022-12-10T05:17:34;23.15;;;11.73;;
19280;SDS011;9774;52.034;5.342;2022-12-10T05:20:01;22.58;;;11.77;;
19280;SDS011;9774;52.034;5.342;2022-12-10T05:22:29;22.30;;;12.23;;
19280;SDS011;9774;52.034;5.342;2022-12-10T05:25:15;26.92;;;11.57;;
19280;SDS011;9774;52.034;5.342;2022-12-10T05:27:42;20.48;;;10.70;;
19280;SDS011;9774;52.034;5.342;2022-12-10T05:30:10;24.50;;;12.65;;
19280;SDS011;9774;52.034;5.342;2022-12-10T05:32:37;21.95;;;11.00;;
19280;SDS011;9774;52.034;5.342;2022-12-10T05:35:05;23.77;;;11.63;;
19280;SDS011;9774;52.034;5.342;2022-12-10T05:37:33;23.08;;;11.60;;
19280;SDS011;9774;52.034;5.342;2022-12-10T05:40:00;22.50;;;10.45;;
19280;SDS011;9774;52.034;5.342;2022-12-10T05:42:29;19.33;;;10.48;;
19280;SDS011;9774;52.034;5.342;2022-12-10T05:44:56;22.67;;;10.00;;
19280;SDS011;9774;52.034;5.342;2022-12-10T05:47:23;20.83;;;10.30;;
19280;SDS011;9774;52.034;5.342;2022-12-10T05:49:51;19.98;;;11.23;;
19280;SDS011;9774;52.034;5.342;2022-12-10T05:52:18;19.45;;;10.40;;
19280;SDS011;9774;52.034;5.342;2022-12-10T05:54:45;21.70;;;9.98;;
19280;SDS011;9774;52.034;5.342;2022-12-10T05:57:12;19.30;;;9.75;;
19280;SDS011;9774;52.034;5.342;2022-12-10T05:59:41;17.67;;;8.88;;
19280;SDS011;9774;52.034;5.342;2022-12-10T06:02:09;20.02;;;11.18;;
19280;SDS011;9774;52.034;5.342;2022-12-10T06:04:36;18.65;;;9.70;;
19280;SDS011;9774;52.034;5.342;2022-12-10T06:07:03;17.60;;;10.13;;
19280;SDS011;9774;52.034;5.342;2022-12-10T06:09:30;25.02;;;12.45;;
19280;SDS011;9774;52.034;5.342;2022-12-10T06:11:58;20.65;;;10.90;;
19280;SDS011;9774;52.034;5.342;2022-12-10T06:14:25;21.45;;;10.73;;
19280;SDS011;9774;52.034;5.342;2022-12-10T06:16:53;18.50;;;10.23;;
19280;SDS011;9774;52.034;5.342;2022-12-10T06:19:21;23.27;;;11.00;;
19280;SDS011;9774;52.034;5.342;2022-12-10T06:21:48;20.98;;;10.68;;
19280;SDS011;9774;52.034;5.342;2022-12-10T06:24:15;21.13;;;11.43;;
19280;SDS011;9774;52.034;5.342;2022-12-10T06:26:42;21.42;;;10.90;;
19280;SDS011;9774;52.034;5.342;2022-12-10T06:29:10;20.52;;;10.68;;
19280;SDS011;9774;52.034;5.342;2022-12-10T06:31:37;23.20;;;11.02;;
19280;SDS011;9774;52.034;5.342;2022-12-10T06:34:06;20.95;;;10.75;;
19280;SDS011;9774;52.034;5.342;2022-12-10T06:36:33;20.45;;;10.23;;
19280;SDS011;9774;52.034;5.342;2022-12-10T06:39:01;21.80;;;10.88;;
19280;SDS011;9774;52.034;5.342;2022-12-10T06:41:29;20.10;;;10.10;;
19280;SDS011;9774;52.034;5.342;2022-12-10T06:43:56;21.73;;;11.20;;
19280;SDS011;9774;52.034;5.342;2022-12-10T06:46:24;20.95;;;10.68;;
19280;SDS011;9774;52.034;5.342;2022-12-10T06:48:52;22.23;;;11.52;;
19280;SDS011;9774;52.034;5.342;2022-12-10T06:51:21;20.20;;;11.30;;
19280;SDS011;9774;52.034;5.342;2022-12-10T06:53:48;28.13;;;11.55;;
19280;SDS011;9774;52.034;5.342;2022-12-10T06:56:16;20.45;;;11.02;;
19280;SDS011;9774;52.034;5.342;2022-12-10T06:58:44;21.38;;;10.43;;
19280;SDS011;9774;52.034;5.342;2022-12-10T07:01:13;19.60;;;11.02;;
19280;SDS011;9774;52.034;5.342;2022-12-10T07:03:41;22.38;;;11.38;;
19280;SDS011;9774;52.034;5.342;2022-12-10T07:06:10;19.58;;;10.45;;
19280;SDS011;9774;52.034;5.342;2022-12-10T07:08:39;19.52;;;10.20;;
19280;SDS011;9774;52.034;5.342;2022-12-10T07:11:07;20.30;;;10.82;;
19280;SDS011;9774;52.034;5.342;2022-12-10T07:13:35;24.55;;;11.50;;
19280;SDS011;9774;52.034;5.342;2022-12-10T07:16:03;22.38;;;11.35;;
19280;SDS011;9774;52.034;5.342;2022-12-10T07:18:38;21.17;;;10.90;;
19280;SDS011;9774;52.034;5.342;2022-12-10T07:21:12;19.38;;;9.63;;
19280;SDS011;9774;52.034;5.342;2022-12-10T07:23:41;18.52;;;10.07;;
19280;SDS011;9774;52.034;5.342;2022-12-10T07:26:09;22.23;;;10.57;;
19280;SDS011;9774;52.034;5.342;2022-12-10T07:28:36;18.88;;;11.30;;
19280;SDS011;9774;52.034;5.342;2022-12-10T07:31:04;21.10;;;10.63;;
19280;SDS011;9774;52.034;5.342;2022-12-10T07:33:33;23.20;;;10.95;;
19280;SDS011;9774;52.034;5.342;2022-12-10T07:36:02;20.42;;;10.45;;
19280;SDS011;9774;52.034;5.342;2022-12-10T07:38:30;22.27;;;11.40;;
19280;SDS011;9774;52.034;5.342;2022-12-10T07:41:01;21.98;;;9.65;;
19280;SDS011;9774;52.034;5.342;2022-12-10T07:43:29;25.25;;;11.38;;
19280;SDS011;9774;52.034;5.342;2022-12-10T07:46:02;21.55;;;9.80;;
19280;SDS011;9774;52.034;5.342;2022-12-10T07:48:30;19.88;;;10.20;;
19280;SDS011;9774;52.034;5.342;2022-12-10T07:50:58;17.45;;;9.65;;
19280;SDS011;9774;52.034;5.342;2022-12-10T07:53:25;20.33;;;10.25;;
19280;SDS011;9774;52.034;5.342;2022-12-10T07:55:52;20.63;;;10.23;;
19280;SDS011;9774;52.034;5.342;2022-12-10T07:58:21;27.67;;;11.52;;
19280;SDS011;9774;52.034;5.342;2022-12-10T08:00:48;24.70;;;11.10;;
19280;SDS011;9774;52.034;5.342;2022-12-10T08:03:16;20.25;;;9.63;;
19280;SDS011;9774;52.034;5.342;2022-12-10T08:05:43;22.35;;;10.07;;
19280;SDS011;9774;52.034;5.342;2022-12-10T08:08:11;22.08;;;10.32;;
19280;SDS011;9774;52.034;5.342;2022-12-10T08:10:38;19.38;;;10.70;;
19280;SDS011;9774;52.034;5.342;2022-12-10T08:13:06;21.08;;;9.85;;
19280;SDS011;9774;52.034;5.342;2022-12-10T08:15:34;22.83;;;11.60;;
19280;SDS011;9774;52.034;5.342;2022-12-10T08:18:02;23.05;;;10.82;;
19280;SDS011;9774;52.034;5.342;2022-12-10T08:20:29;23.33;;;11.02;;
19280;SDS011;9774;52.034;5.342;2022-12-10T08:22:57;20.60;;;10.35;;
19280;SDS011;9774;52.034;5.342;2022-12-10T08:25:24;18.98;;;10.05;;
19280;SDS011;9774;52.034;5.342;2022-12-10T08:27:51;25.60;;;10.65;;
19280;SDS011;9774;52.034;5.342;2022-12-10T08:30:18;21.25;;;10.57;;
19280;SDS011;9774;52.034;5.342;2022-12-10T08:32:47;21.38;;;9.85;;
19280;SDS011;9774;52.034;5.342;2022-12-10T08:35:14;15.95;;;8.23;;
19280;SDS011;9774;52.034;5.342;2022-12-10T08:37:41;16.85;;;8.00;;
19280;SDS011;9774;52.034;5.342;2022-12-10T08:40:09;24.77;;;9.77;;
19280;SDS011;9774;52.034;5.342;2022-12-10T08:42:37;18.48;;;9.52;;
19280;SDS011;9774;52.034;5.342;2022-12-10T08:45:05;19.15;;;10.02;;
19280;SDS011;9774;52.034;5.342;2022-12-10T08:47:32;20.63;;;9.57;;
19280;SDS011;9774;52.034;5.342;2022-12-10T08:50:01;20.05;;;9.38;;
19280;SDS011;9774;52.034;5.342;2022-12-10T08:52:29;18.77;;;8.77;;
19280;SDS011;9774;52.034;5.342;2022-12-10T08:54:56;16.30;;;8.27;;
19280;SDS011;9774;52.034;5.342;2022-12-10T08:57:24;18.40;;;8.52;;
19280;SDS011;9774;52.034;5.342;2022-12-10T08:59:51;22.05;;;9.90;;
19280;SDS011;9774;52.034;5.342;2022-12-10T09:02:18;19.05;;;9.10;;
19280;SDS011;9774;52.034;5.342;2022-12-10T09:04:45;18.73;;;9.55;;
19280;SDS011;9774;52.034;5.342;2022-12-10T09:07:16;21.98;;;10.10;;
19280;SDS011;9774;52.034;5.342;2022-12-10T09:09:43;19.30;;;8.98;;
19280;SDS011;9774;52.034;5.342;2022-12-10T09:12:10;19.08;;;8.82;;
19280;SDS011;9774;52.034;5.342;2022-12-10T09:14:37;21.10;;;9.55;;
19280;SDS011;9774;52.034;5.342;2022-12-10T09:17:05;21.50;;;9.35;;
19280;SDS011;9774;52.034;5.342;2022-12-10T09:19:32;23.17;;;9.75;;
19280;SDS011;9774;52.034;5.342;2022-12-10T09:22:00;20.67;;;8.82;;
19280;SDS011;9774;52.034;5.342;2022-12-10T09:24:29;21.73;;;9.10;;
19280;SDS011;9774;52.034;5.342;2022-12-10T09:26:56;20.27;;;8.93;;
19280;SDS011;9774;52.034;5.342;2022-12-10T09:29:23;20.60;;;9.63;;
19280;SDS011;9774;52.034;5.342;2022-12-10T09:31:51;23.15;;;10.05;;
19280;SDS011;9774;52.034;5.342;2022-12-10T09:34:18;20.48;;;9.60;;
19280;SDS011;9774;52.034;5.342;2022-12-10T09:36:46;20.90;;;8.68;;
19280;SDS011;9774;52.034;5.342;2022-12-10T09:39:14;17.02;;;8.95;;
19280;SDS011;9774;52.034;5.342;2022-12-10T09:41:47;19.75;;;9.20;;
19280;SDS011;9774;52.034;5.342;2022-12-10T09:44:26;21.95;;;10.27;;
19280;SDS011;9774;52.034;5.342;2022-12-10T09:47:03;19.70;;;8.93;;
19280;SDS011;9774;52.034;5.342;2022-12-10T09:49:38;22.77;;;10.25;;
19280;SDS011;9774;52.034;5.342;2022-12-10T09:52:17;20.55;;;8.95;;
19280;SDS011;9774;52.034;5.342;2022-12-10T09:54:47;19.58;;;8.98;;
19280;SDS011;9774;52.034;5.342;2022-12-10T09:57:21;22.52;;;10.05;;
19280;SDS011;9774;52.034;5.342;2022-12-10T09:59:52;20.67;;;9.52;;
19280;SDS011;9774;52.034;5.342;2022-12-10T10:02:20;22.75;;;10.25;;
19280;SDS011;9774;52.034;5.342;2022-12-10T10:04:51;21.92;;;9.35;;
19280;SDS011;9774;52.034;5.342;2022-12-10T10:07:21;22.33;;;9.30;;
19280;SDS011;9774;52.034;5.342;2022-12-10T10:09:51;20.73;;;10.02;;
19280;SDS011;9774;52.034;5.342;2022-12-10T10:12:26;19.95;;;9.07;;
19280;SDS011;9774;52.034;5.342;2022-12-10T10:14:56;19.73;;;8.75;;
19280;SDS011;9774;52.034;5.342;2022-12-10T10:17:27;18.80;;;8.40;;
19280;SDS011;9774;52.034;5.342;2022-12-10T10:19:59;15.38;;;7.38;;
19280;SDS011;9774;52.034;5.342;2022-12-10T10:22:26;15.02;;;8.05;;
19280;SDS011;9774;52.034;5.342;2022-12-10T10:24:55;17.67;;;8.07;;
19280;SDS011;9774;52.034;5.342;2022-12-10T10:27:23;17.05;;;7.60;;
19280;SDS011;9774;52.034;5.342;2022-12-10T10:29:55;17.25;;;8.27;;
19280;SDS011;9774;52.034;5.342;2022-12-10T10:32:27;16.58;;;7.22;;
19280;SDS011;9774;52.034;5.342;2022-12-10T10:35:19;15.93;;;7.75;;
19280;SDS011;9774;52.034;5.342;2022-12-10T10:37:49;18.48;;;8.30;;
19280;SDS011;9774;52.034;5.342;2022-12-10T10:40:22;17.73;;;8.68;;
19280;SDS011;9774;52.034;5.342;2022-12-10T10:42:53;19.48;;;9.35;;
19280;SDS011;9774;52.034;5.342;2022-12-10T10:45:33;17.70;;;8.73;;
19280;SDS011;9774;52.034;5.342;2022-12-10T10:48:04;20.30;;;8.52;;
19280;SDS011;9774;52.034;5.342;2022-12-10T10:50:39;20.80;;;8.95;;
19280;SDS011;9774;52.034;5.342;2022-12-10T10:53:21;20.45;;;9.27;;
19280;SDS011;9774;52.034;5.342;2022-12-10T10:55:54;19.45;;;8.93;;
19280;SDS011;9774;52.034;5.342;2022-12-10T10:58:25;19.38;;;8.68;;
19280;SDS011;9774;52.034;5.342;2022-12-10T11:00:56;21.92;;;8.75;;
19280;SDS011;9774;52.034;5.342;2022-12-10T11:03:26;23.02;;;9.02;;
19280;SDS011;9774;52.034;5.342;2022-12-10T11:05:56;18.10;;;8.35;;
19280;SDS011;9774;52.034;5.342;2022-12-10T11:08:25;19.42;;;8.57;;
19280;SDS011;9774;52.034;5.342;2022-12-10T11:10:56;18.10;;;7.97;;
19280;SDS011;9774;52.034;5.342;2022-12-10T11:13:30;20.98;;;8.90;;
19280;SDS011;9774;52.034;5.342;2022-12-10T11:16:00;17.10;;;7.80;;
19280;SDS011;9774;52.034;5.342;2022-12-10T11:18:35;17.27;;;8.35;;
19280;SDS011;9774;52.034;5.342;2022-12-10T11:21:05;18.98;;;7.80;;
19280;SDS011;9774;52.034;5.342;2022-12-10T11:23:42;16.15;;;8.00;;
19280;SDS011;9774;52.034;5.342;2022-12-10T11:26:15;19.88;;;9.13;;
19280;SDS011;9774;52.034;5.342;2022-12-10T11:29:05;17.15;;;8.23;;
19280;SDS011;9774;52.034;5.342;2022-12-10T11:31:46;18.67;;;9.00;;
19280;SDS011;9774;52.034;5.342;2022-12-10T11:34:24;19.95;;;8.13;;
19280;SDS011;9774;52.034;5.342;2022-12-10T11:37:02;19.45;;;9.32;;
19280;SDS011;9774;52.034;5.342;2022-12-10T11:39:45;19.75;;;8.68;;
19280;SDS011;9774;52.034;5.342;2022-12-10T11:42:41;17.65;;;8.43;;
19280;SDS011;9774;52.034;5.342;2022-12-10T11:45:20;19.42;;;9.00;;
19280;SDS011;9774;52.034;5.342;2022-12-10T11:47:55;20.25;;;9.20;;
19280;SDS011;9774;52.034;5.342;2022-12-10T11:50:35;17.92;;;8.80;;
19280;SDS011;9774;52.034;5.342;2022-12-10T11:53:11;25.77;;;9.95;;
19280;SDS011;9774;52.034;5.342;2022-12-10T11:56:03;21.50;;;9.25;;
19280;SDS011;9774;52.034;5.342;2022-12-10T11:58:44;21.65;;;8.65;;
19280;SDS011;9774;52.034;5.342;2022-12-10T12:01:27;21.05;;;9.18;;
19280;SDS011;9774;52.034;5.342;2022-12-10T12:04:10;19.33;;;8.82;;
19280;SDS011;9774;52.034;5.342;2022-12-10T12:06:53;17.52;;;8.82;;
19280;SDS011;9774;52.034;5.342;2022-12-10T12:09:30;19.98;;;9.18;;
19280;SDS011;9774;52.034;5.342;2022-12-10T12:12:11;16.55;;;8.18;;
19280;SDS011;9774;52.034;5.342;2022-12-10T12:14:49;21.50;;;9.40;;
19280;SDS011;9774;52.034;5.342;2022-12-10T12:17:22;19.67;;;9.57;;
19280;SDS011;9774;52.034;5.342;2022-12-10T12:19:54;19.83;;;9.13;;
19280;SDS011;9774;52.034;5.342;2022-12-10T12:22:25;17.45;;;8.05;;
19280;SDS011;9774;52.034;5.342;2022-12-10T12:24:57;15.63;;;7.55;;
19280;SDS011;9774;52.034;5.342;2022-12-10T12:27:28;15.10;;;7.78;;
19280;SDS011;9774;52.034;5.342;2022-12-10T12:30:02;19.50;;;9.60;;
19280;SDS011;9774;52.034;5.342;2022-12-10T12:32:35;16.75;;;7.47;;
19280;SDS011;9774;52.034;5.342;2022-12-10T12:35:10;17.48;;;8.00;;
19280;SDS011;9774;52.034;5.342;2022-12-10T12:37:44;20.60;;;9.23;;
19280;SDS011;9774;52.034;5.342;2022-12-10T12:40:20;18.65;;;9.00;;
19280;SDS011;9774;52.034;5.342;2022-12-10T12:42:55;18.55;;;7.57;;
19280;SDS011;9774;52.034;5.342;2022-12-10T12:45:28;18.55;;;9.00;;
19280;SDS011;9774;52.034;5.342;2022-12-10T12:48:04;21.60;;;9.60;;
19280;SDS011;9774;52.034;5.342;2022-12-10T12:50:48;20.17;;;10.00;;
19280;SDS011;9774;52.034;5.342;2022-12-10T12:53:21;21.27;;;9.52;;
19280;SDS011;9774;52.034;5.342;2022-12-10T12:55:53;22.98;;;9.02;;
19280;SDS011;9774;52.034;5.342;2022-12-10T12:58:31;20.52;;;8.73;;
19280;SDS011;9774;52.034;5.342;2022-12-10T13:01:06;17.25;;;7.90;;
19280;SDS011;9774;52.034;5.342;2022-12-10T13:03:45;21.58;;;9.45;;
19280;SDS011;9774;52.034;5.342;2022-12-10T13:06:15;18.10;;;8.98;;
19280;SDS011;9774;52.034;5.342;2022-12-10T13:08:47;20.30;;;9.23;;
19280;SDS011;9774;52.034;5.342;2022-12-10T13:11:17;17.35;;;8.45;;
19280;SDS011;9774;52.034;5.342;2022-12-10T13:14:13;19.48;;;9.20;;
19280;SDS011;9774;52.034;5.342;2022-12-10T13:17:08;15.50;;;7.07;;
19280;SDS011;9774;52.034;5.342;2022-12-10T13:19:53;20.10;;;9.32;;
19280;SDS011;9774;52.034;5.342;2022-12-10T13:22:54;17.40;;;9.00;;
19280;SDS011;9774;52.034;5.342;2022-12-10T13:25:37;18.67;;;8.68;;
19280;SDS011;9774;52.034;5.342;2022-12-10T13:28:17;18.10;;;7.93;;
19280;SDS011;9774;52.034;5.342;2022-12-10T13:31:15;21.52;;;9.43;;
19280;SDS011;9774;52.034;5.342;2022-12-10T13:33:47;19.73;;;8.88;;
19280;SDS011;9774;52.034;5.342;2022-12-10T13:36:21;17.88;;;9.23;;
19280;SDS011;9774;52.034;5.342;2022-12-10T13:38:55;19.73;;;10.18;;
19280;SDS011;9774;52.034;5.342;2022-12-10T13:41:39;21.13;;;9.82;;
19280;SDS011;9774;52.034;5.342;2022-12-10T13:44:46;18.02;;;8.48;;
19280;SDS011;9774;52.034;5.342;2022-12-10T13:47:24;16.73;;;8.25;;
19280;SDS011;9774;52.034;5.342;2022-12-10T13:49:57;18.05;;;8.80;;
19280;SDS011;9774;52.034;5.342;2022-12-10T13:52:29;18.77;;;8.57;;
19280;SDS011;9774;52.034;5.342;2022-12-10T13:55:19;19.05;;;9.20;;
19280;SDS011;9774;52.034;5.342;2022-12-10T14:00:59;17.88;;;8.07;;
19280;SDS011;9774;52.034;5.342;2022-12-10T14:03:40;19.13;;;8.75;;
19280;SDS011;9774;52.034;5.342;2022-12-10T14:06:25;17.70;;;7.72;;
19280;SDS011;9774;52.034;5.342;2022-12-10T14:09:00;17.30;;;8.65;;
19280;SDS011;9774;52.034;5.342;2022-12-10T14:11:31;19.92;;;10.30;;
19280;SDS011;9774;52.034;5.342;2022-12-10T14:14:02;22.02;;;9.60;;
19280;SDS011;9774;52.034;5.342;2022-12-10T14:16:31;19.98;;;8.90;;
19280;SDS011;9774;52.034;5.342;2022-12-10T14:19:01;19.45;;;9.48;;
19280;SDS011;9774;52.034;5.342;2022-12-10T14:21:32;18.58;;;9.30;;
19280;SDS011;9774;52.034;5.342;2022-12-10T14:24:02;19.60;;;9.15;;
19280;SDS011;9774;52.034;5.342;2022-12-10T14:26:31;19.33;;;9.27;;
19280;SDS011;9774;52.034;5.342;2022-12-10T14:29:08;20.88;;;9.38;;
19280;SDS011;9774;52.034;5.342;2022-12-10T14:31:44;23.65;;;10.20;;
19280;SDS011;9774;52.034;5.342;2022-12-10T14:34:14;20.67;;;9.82;;
19280;SDS011;9774;52.034;5.342;2022-12-10T14:36:44;20.77;;;9.25;;
19280;SDS011;9774;52.034;5.342;2022-12-10T14:39:14;23.60;;;10.10;;
19280;SDS011;9774;52.034;5.342;2022-12-10T14:41:43;24.15;;;9.27;;
19280;SDS011;9774;52.034;5.342;2022-12-10T14:44:12;23.55;;;10.35;;
19280;SDS011;9774;52.034;5.342;2022-12-10T14:46:41;20.83;;;9.80;;
19280;SDS011;9774;52.034;5.342;2022-12-10T14:49:12;22.80;;;9.68;;
19280;SDS011;9774;52.034;5.342;2022-12-10T14:51:43;19.23;;;8.95;;
19280;SDS011;9774;52.034;5.342;2022-12-10T14:54:23;24.42;;;10.57;;
19280;SDS011;9774;52.034;5.342;2022-12-10T14:56:53;22.73;;;10.50;;
19280;SDS011;9774;52.034;5.342;2022-12-10T14:59:22;22.92;;;10.02;;
19280;SDS011;9774;52.034;5.342;2022-12-10T15:01:56;22.55;;;9.73;;
19280;SDS011;9774;52.034;5.342;2022-12-10T15:04:27;25.65;;;10.63;;
19280;SDS011;9774;52.034;5.342;2022-12-10T15:07:05;25.38;;;10.75;;
19280;SDS011;9774;52.034;5.342;2022-12-10T15:09:37;25.33;;;10.20;;
19280;SDS011;9774;52.034;5.342;2022-12-10T15:12:05;24.95;;;12.02;;